sensor_id;sensor_type;location;lat;lon;timestamp;pressure;altitude;pressure_sealevel;temperature;humidity
50226;BME280;36113;50.742;6.432;2023-05-11T00:00:36;112741.81;;;-145.50;100.00
50226;BME280;36113;50.742;6.432;2023-05-11T00:03:02;112741.81;;;-145.50;100.00
50226;BME280;36113;50.742;6.432;2023-05-11T00:05:27;112741.81;;;-145.50;100.00
50226;BME280;36113;50.742;6.432;2023-05-11T00:07:52;112741.81;;;-145.50;100.00
50226;BME280;36113;50.742;6.432;2023-05-11T00:10:18;112741.81;;;-145.50;100.00
50226;BME280;36113;50.742;6.432;2023-05-11T00:12:43;112741.81;;;-145.50;100.00
50226;BME280;36113;50.742;6.432;2023-05-11T00:15:09;112741.81;;;-145.50;100.00
50226;BME280;36113;50.742;6.432;2023-05-11T00:17:34;112741.81;;;-145.50;100.00
50226;BME280;36113;50.742;6.432;2023-05-11T00:20:00;112741.81;;;-145.50;100.00
50226;BME280;36113;50.742;6.432;2023-05-11T00:22:25;112741.81;;;-145.50;100.00
50226;BME280;36113;50.742;6.432;2023-05-11T00:24:50;112741.81;;;-145.50;100.00
50226;BME280;36113;50.742;6.432;2023-05-11T00:27:16;112741.81;;;-145.50;100.00
50226;BME280;36113;50.742;6.432;2023-05-11T00:29:41;112741.81;;;-145.50;100.00
50226;BME280;36113;50.742;6.432;2023-05-11T00:32:07;112741.81;;;-145.50;100.00
50226;BME280;36113;50.742;6.432;2023-05-11T00:34:32;112741.81;;;-145.50;100.00
50226;BME280;36113;50.742;6.432;2023-05-11T00:36:57;112741.81;;;-145.50;100.00
50226;BME280;36113;50.742;6.432;2023-05-11T00:39:23;112741.81;;;-145.50;100.00
50226;BME280;36113;50.742;6.432;2023-05-11T00:41:48;112741.81;;;-145.50;100.00
50226;BME280;36113;50.742;6.432;2023-05-11T00:44:13;112741.81;;;-145.50;100.00
50226;BME280;36113;50.742;6.432;2023-05-11T00:46:39;112741.81;;;-145.50;100.00
50226;BME280;36113;50.742;6.432;2023-05-11T00:49:04;112741.81;;;-145.50;100.00
50226;BME280;36113;50.742;6.432;2023-05-11T00:51:31;112741.81;;;-145.50;100.00
50226;BME280;36113;50.742;6.432;2023-05-11T00:53:57;112741.81;;;-145.50;100.00
50226;BME280;36113;50.742;6.432;2023-05-11T00:56:23;112741.81;;;-145.50;100.00
50226;BME280;36113;50.742;6.432;2023-05-11T00:58:48;112741.81;;;-145.50;100.00
50226;BME280;36113;50.742;6.432;2023-05-11T01:01:13;112741.81;;;-145.50;100.00
50226;BME280;36113;50.742;6.432;2023-05-11T01:03:42;112741.81;;;-145.50;100.00
50226;BME280;36113;50.742;6.432;2023-05-11T01:06:11;112741.81;;;-145.50;100.00
50226;BME280;36113;50.742;6.432;2023-05-11T01:09:02;112741.81;;;-145.50;100.00
50226;BME280;36113;50.742;6.432;2023-05-11T01:11:36;112741.81;;;-145.50;100.00
50226;BME280;36113;50.742;6.432;2023-05-11T01:14:26;112741.81;;;-145.50;100.00
50226;BME280;36113;50.742;6.432;2023-05-11T01:17:01;112741.81;;;-145.50;100.00
50226;BME280;36113;50.742;6.432;2023-05-11T01:19:40;112741.81;;;-145.50;100.00
50226;BME280;36113;50.742;6.432;2023-05-11T01:22:39;112741.81;;;-145.50;100.00
50226;BME280;36113;50.742;6.432;2023-05-11T01:31:02;112741.81;;;-145.50;100.00
50226;BME280;36113;50.742;6.432;2023-05-11T01:33:33;112741.81;;;-145.50;100.00
50226;BME280;36113;50.742;6.432;2023-05-11T01:36:04;112741.81;;;-145.50;100.00
50226;BME280;36113;50.742;6.432;2023-05-11T01:38:33;112741.81;;;-145.50;100.00
50226;BME280;36113;50.742;6.432;2023-05-11T01:41:02;112741.81;;;-145.50;100.00
50226;BME280;36113;50.742;6.432;2023-05-11T01:43:34;112741.81;;;-145.50;100.00
50226;BME280;36113;50.742;6.432;2023-05-11T01:46:01;112741.81;;;-145.50;100.00
50226;BME280;36113;50.742;6.432;2023-05-11T01:48:28;112741.81;;;-145.50;100.00
50226;BME280;36113;50.742;6.432;2023-05-11T01:50:59;112741.81;;;-145.50;100.00
50226;BME280;36113;50.742;6.432;2023-05-11T01:53:27;112741.81;;;-145.50;100.00
50226;BME280;36113;50.742;6.432;2023-05-11T01:55:54;112741.81;;;-145.50;100.00
50226;BME280;36113;50.742;6.432;2023-05-11T01:58:23;112741.81;;;-145.50;100.00
50226;BME280;36113;50.742;6.432;2023-05-11T02:00:50;112741.81;;;-145.50;100.00
50226;BME280;36113;50.742;6.432;2023-05-11T02:03:17;112741.81;;;-145.50;100.00
50226;BME280;36113;50.742;6.432;2023-05-11T02:05:44;112741.81;;;-145.50;100.00
50226;BME280;36113;50.742;6.432;2023-05-11T02:08:12;112741.81;;;-145.50;100.00
50226;BME280;36113;50.742;6.432;2023-05-11T02:10:39;112741.81;;;-145.50;100.00
50226;BME280;36113;50.742;6.432;2023-05-11T02:13:05;112741.81;;;-145.50;100.00
50226;BME280;36113;50.742;6.432;2023-05-11T02:15:32;112741.81;;;-145.50;100.00
50226;BME280;36113;50.742;6.432;2023-05-11T02:18:00;112741.81;;;-145.50;100.00
50226;BME280;36113;50.742;6.432;2023-05-11T02:20:27;112741.81;;;-145.50;100.00
50226;BME280;36113;50.742;6.432;2023-05-11T02:22:53;112741.81;;;-145.50;100.00
50226;BME280;36113;50.742;6.432;2023-05-11T02:25:18;112741.81;;;-145.50;100.00
50226;BME280;36113;50.742;6.432;2023-05-11T02:27:45;112741.81;;;-145.50;100.00
50226;BME280;36113;50.742;6.432;2023-05-11T02:30:11;112741.81;;;-145.50;100.00
50226;BME280;36113;50.742;6.432;2023-05-11T02:32:38;112741.81;;;-145.50;100.00
50226;BME280;36113;50.742;6.432;2023-05-11T02:35:12;112741.81;;;-145.50;100.00
50226;BME280;36113;50.742;6.432;2023-05-11T02:37:42;112741.81;;;-145.50;100.00
50226;BME280;36113;50.742;6.432;2023-05-11T02:40:19;112741.81;;;-145.50;100.00
50226;BME280;36113;50.742;6.432;2023-05-11T02:42:53;112741.81;;;-145.50;100.00
50226;BME280;36113;50.742;6.432;2023-05-11T02:45:21;112741.81;;;-145.50;100.00
50226;BME280;36113;50.742;6.432;2023-05-11T02:47:53;112741.81;;;-145.50;100.00
50226;BME280;36113;50.742;6.432;2023-05-11T02:50:21;112741.81;;;-145.50;100.00
50226;BME280;36113;50.742;6.432;2023-05-11T02:52:50;112741.81;;;-145.50;100.00
50226;BME280;36113;50.742;6.432;2023-05-11T02:55:19;112741.81;;;-145.50;100.00
50226;BME280;36113;50.742;6.432;2023-05-11T02:57:46;112741.81;;;-145.50;100.00
50226;BME280;36113;50.742;6.432;2023-05-11T03:00:12;112741.81;;;-145.50;100.00
50226;BME280;36113;50.742;6.432;2023-05-11T03:02:38;112741.81;;;-145.50;100.00
50226;BME280;36113;50.742;6.432;2023-05-11T03:05:04;112741.81;;;-145.50;100.00
50226;BME280;36113;50.742;6.432;2023-05-11T03:07:31;112741.81;;;-145.50;100.00
50226;BME280;36113;50.742;6.432;2023-05-11T03:09:57;112741.81;;;-145.50;100.00
50226;BME280;36113;50.742;6.432;2023-05-11T03:12:22;112741.81;;;-145.50;100.00
50226;BME280;36113;50.742;6.432;2023-05-11T03:14:48;112741.81;;;-145.50;100.00
50226;BME280;36113;50.742;6.432;2023-05-11T03:17:14;112741.81;;;-145.50;100.00
50226;BME280;36113;50.742;6.432;2023-05-11T03:19:41;112741.81;;;-145.50;100.00
50226;BME280;36113;50.742;6.432;2023-05-11T03:22:07;112741.81;;;-145.50;100.00
50226;BME280;36113;50.742;6.432;2023-05-11T03:24:34;112741.81;;;-145.50;100.00
50226;BME280;36113;50.742;6.432;2023-05-11T03:27:01;112741.81;;;-145.50;100.00
50226;BME280;36113;50.742;6.432;2023-05-11T03:29:28;112741.81;;;-145.50;100.00
50226;BME280;36113;50.742;6.432;2023-05-11T03:31:55;112741.81;;;-145.50;100.00
50226;BME280;36113;50.742;6.432;2023-05-11T03:34:20;112741.81;;;-145.50;100.00
50226;BME280;36113;50.742;6.432;2023-05-11T03:36:49;112741.81;;;-145.50;100.00
50226;BME280;36113;50.742;6.432;2023-05-11T03:39:19;112741.81;;;-145.50;100.00
50226;BME280;36113;50.742;6.432;2023-05-11T03:41:48;112741.81;;;-145.50;100.00
50226;BME280;36113;50.742;6.432;2023-05-11T03:44:16;112741.81;;;-145.50;100.00
50226;BME280;36113;50.742;6.432;2023-05-11T03:46:44;112741.81;;;-145.50;100.00
50226;BME280;36113;50.742;6.432;2023-05-11T03:49:11;112741.81;;;-145.50;100.00
50226;BME280;36113;50.742;6.432;2023-05-11T03:51:37;112741.81;;;-145.50;100.00
50226;BME280;36113;50.742;6.432;2023-05-11T03:54:04;112741.81;;;-145.50;100.00
50226;BME280;36113;50.742;6.432;2023-05-11T03:56:34;112741.81;;;-145.50;100.00
50226;BME280;36113;50.742;6.432;2023-05-11T03:58:59;112741.81;;;-145.50;100.00
50226;BME280;36113;50.742;6.432;2023-05-11T04:01:25;112741.81;;;-145.50;100.00
50226;BME280;36113;50.742;6.432;2023-05-11T04:03:51;112741.81;;;-145.50;100.00
50226;BME280;36113;50.742;6.432;2023-05-11T04:06:17;112741.81;;;-145.50;100.00
50226;BME280;36113;50.742;6.432;2023-05-11T04:08:43;112741.81;;;-145.50;100.00
50226;BME280;36113;50.742;6.432;2023-05-11T04:11:09;112741.81;;;-145.50;100.00
50226;BME280;36113;50.742;6.432;2023-05-11T04:13:34;112741.81;;;-145.50;100.00
50226;BME280;36113;50.742;6.432;2023-05-11T04:15:59;112741.81;;;-145.50;100.00
50226;BME280;36113;50.742;6.432;2023-05-11T04:18:25;112741.81;;;-145.50;100.00
50226;BME280;36113;50.742;6.432;2023-05-11T04:20:51;112741.81;;;-145.50;100.00
50226;BME280;36113;50.742;6.432;2023-05-11T04:23:16;112741.81;;;-145.50;100.00
50226;BME280;36113;50.742;6.432;2023-05-11T04:25:42;112741.81;;;-145.50;100.00
50226;BME280;36113;50.742;6.432;2023-05-11T04:28:07;112741.81;;;-145.50;100.00
50226;BME280;36113;50.742;6.432;2023-05-11T04:30:32;112741.81;;;-145.50;100.00
50226;BME280;36113;50.742;6.432;2023-05-11T04:32:58;112741.81;;;-145.50;100.00
50226;BME280;36113;50.742;6.432;2023-05-11T04:35:23;112741.81;;;-145.50;100.00
50226;BME280;36113;50.742;6.432;2023-05-11T04:37:49;112741.81;;;-145.50;100.00
50226;BME280;36113;50.742;6.432;2023-05-11T04:40:14;112741.81;;;-145.50;100.00
50226;BME280;36113;50.742;6.432;2023-05-11T04:42:40;112741.81;;;-145.50;100.00
50226;BME280;36113;50.742;6.432;2023-05-11T04:45:06;112741.81;;;-145.50;100.00
50226;BME280;36113;50.742;6.432;2023-05-11T04:47:31;112741.81;;;-145.50;100.00
50226;BME280;36113;50.742;6.432;2023-05-11T04:49:56;112741.81;;;-145.50;100.00
50226;BME280;36113;50.742;6.432;2023-05-11T04:52:22;112741.81;;;-145.50;100.00
50226;BME280;36113;50.742;6.432;2023-05-11T04:54:47;112741.81;;;-145.50;100.00
50226;BME280;36113;50.742;6.432;2023-05-11T04:57:12;112741.81;;;-145.50;100.00
50226;BME280;36113;50.742;6.432;2023-05-11T04:59:38;112741.81;;;-145.50;100.00
50226;BME280;36113;50.742;6.432;2023-05-11T05:02:03;112741.81;;;-145.50;100.00
50226;BME280;36113;50.742;6.432;2023-05-11T05:04:28;112741.81;;;-145.50;100.00
50226;BME280;36113;50.742;6.432;2023-05-11T05:06:54;112741.81;;;-145.50;100.00
50226;BME280;36113;50.742;6.432;2023-05-11T05:09:19;112741.81;;;-145.50;100.00
50226;BME280;36113;50.742;6.432;2023-05-11T05:11:44;112741.81;;;-145.50;100.00
50226;BME280;36113;50.742;6.432;2023-05-11T05:14:10;112741.81;;;-145.50;100.00
50226;BME280;36113;50.742;6.432;2023-05-11T05:16:35;112741.81;;;-145.50;100.00
50226;BME280;36113;50.742;6.432;2023-05-11T05:19:00;112741.81;;;-145.50;100.00
50226;BME280;36113;50.742;6.432;2023-05-11T05:21:26;112741.81;;;-145.50;100.00
50226;BME280;36113;50.742;6.432;2023-05-11T05:23:51;112741.81;;;-145.50;100.00
50226;BME280;36113;50.742;6.432;2023-05-11T05:26:16;112741.81;;;-145.50;100.00
50226;BME280;36113;50.742;6.432;2023-05-11T05:28:42;112741.81;;;-145.50;100.00
50226;BME280;36113;50.742;6.432;2023-05-11T05:31:07;112741.81;;;-145.50;100.00
50226;BME280;36113;50.742;6.432;2023-05-11T05:33:32;112741.81;;;-145.50;100.00
50226;BME280;36113;50.742;6.432;2023-05-11T05:35:58;112741.81;;;-145.50;100.00
50226;BME280;36113;50.742;6.432;2023-05-11T05:38:23;112741.81;;;-145.50;100.00
50226;BME280;36113;50.742;6.432;2023-05-11T05:40:48;112741.81;;;-145.50;100.00
50226;BME280;36113;50.742;6.432;2023-05-11T05:43:14;112741.81;;;-145.50;100.00
50226;BME280;36113;50.742;6.432;2023-05-11T05:45:39;112741.81;;;-145.50;100.00
50226;BME280;36113;50.742;6.432;2023-05-11T05:48:05;112741.81;;;-145.50;100.00
50226;BME280;36113;50.742;6.432;2023-05-11T05:50:31;112741.81;;;-145.50;100.00
50226;BME280;36113;50.742;6.432;2023-05-11T05:52:57;112741.81;;;-145.50;100.00
50226;BME280;36113;50.742;6.432;2023-05-11T05:55:22;112741.81;;;-145.50;100.00
50226;BME280;36113;50.742;6.432;2023-05-11T05:57:48;112741.81;;;-145.50;100.00
50226;BME280;36113;50.742;6.432;2023-05-11T06:00:14;112741.81;;;-145.50;100.00
50226;BME280;36113;50.742;6.432;2023-05-11T06:02:39;112741.81;;;-145.50;100.00
50226;BME280;36113;50.742;6.432;2023-05-11T06:05:05;112741.81;;;-145.50;100.00
50226;BME280;36113;50.742;6.432;2023-05-11T06:07:31;112741.81;;;-145.50;100.00
50226;BME280;36113;50.742;6.432;2023-05-11T06:09:57;112741.81;;;-145.50;100.00
50226;BME280;36113;50.742;6.432;2023-05-11T06:12:22;112741.81;;;-145.50;100.00
50226;BME280;36113;50.742;6.432;2023-05-11T06:14:48;112741.81;;;-145.50;100.00
50226;BME280;36113;50.742;6.432;2023-05-11T06:17:13;112741.81;;;-145.50;100.00
50226;BME280;36113;50.742;6.432;2023-05-11T06:19:38;112741.81;;;-145.50;100.00
50226;BME280;36113;50.742;6.432;2023-05-11T06:22:04;112741.81;;;-145.50;100.00
50226;BME280;36113;50.742;6.432;2023-05-11T06:24:30;112741.81;;;-145.50;100.00
50226;BME280;36113;50.742;6.432;2023-05-11T06:26:55;112741.81;;;-145.50;100.00
50226;BME280;36113;50.742;6.432;2023-05-11T06:29:21;112741.81;;;-145.50;99.48
50226;BME280;36113;50.742;6.432;2023-05-11T06:31:47;112741.81;;;-145.50;98.55
50226;BME280;36113;50.742;6.432;2023-05-11T06:34:17;112741.81;;;-145.50;98.55
50226;BME280;36113;50.742;6.432;2023-05-11T06:36:43;112741.81;;;-145.50;98.66
50226;BME280;36113;50.742;6.432;2023-05-11T06:39:08;112741.81;;;-145.50;98.72
50226;BME280;36113;50.742;6.432;2023-05-11T06:41:33;112741.81;;;-145.50;98.60
50226;BME280;36113;50.742;6.432;2023-05-11T06:43:59;112741.81;;;-145.50;98.88
50226;BME280;36113;50.742;6.432;2023-05-11T06:46:24;112741.81;;;-145.50;99.03
50226;BME280;36113;50.742;6.432;2023-05-11T06:48:50;112741.81;;;-145.50;98.74
50226;BME280;36113;50.742;6.432;2023-05-11T06:51:15;112741.81;;;-145.50;98.76
50226;BME280;36113;50.742;6.432;2023-05-11T06:53:41;112741.81;;;-145.50;97.91
50226;BME280;36113;50.742;6.432;2023-05-11T06:56:06;112741.81;;;-145.50;97.86
50226;BME280;36113;50.742;6.432;2023-05-11T06:58:32;112741.81;;;-145.50;97.52
50226;BME280;36113;50.742;6.432;2023-05-11T07:00:57;112741.81;;;-145.50;97.70
50226;BME280;36113;50.742;6.432;2023-05-11T07:03:23;112741.81;;;-145.50;97.93
50226;BME280;36113;50.742;6.432;2023-05-11T07:05:48;112741.81;;;-145.50;97.77
50226;BME280;36113;50.742;6.432;2023-05-11T07:08:14;112741.81;;;-145.50;96.90
50226;BME280;36113;50.742;6.432;2023-05-11T07:10:39;112741.81;;;-145.50;96.78
50226;BME280;36113;50.742;6.432;2023-05-11T07:13:06;112741.81;;;-145.50;97.38
50226;BME280;36113;50.742;6.432;2023-05-11T07:15:31;112741.81;;;-145.50;98.00
50226;BME280;36113;50.742;6.432;2023-05-11T07:17:56;112741.81;;;-145.50;97.71
50226;BME280;36113;50.742;6.432;2023-05-11T07:20:22;112741.81;;;-145.50;97.44
50226;BME280;36113;50.742;6.432;2023-05-11T07:22:47;112741.81;;;-145.50;98.62
50226;BME280;36113;50.742;6.432;2023-05-11T07:25:13;112741.81;;;-145.50;98.42
50226;BME280;36113;50.742;6.432;2023-05-11T07:27:38;112741.81;;;-145.50;99.00
50226;BME280;36113;50.742;6.432;2023-05-11T07:30:04;112741.81;;;-145.50;100.00
50226;BME280;36113;50.742;6.432;2023-05-11T07:32:29;112741.81;;;-145.50;100.00
50226;BME280;36113;50.742;6.432;2023-05-11T07:34:54;112741.81;;;-145.50;100.00
50226;BME280;36113;50.742;6.432;2023-05-11T07:37:20;112741.81;;;-145.50;100.00
50226;BME280;36113;50.742;6.432;2023-05-11T07:39:45;112741.81;;;-145.50;100.00
50226;BME280;36113;50.742;6.432;2023-05-11T07:42:11;112741.81;;;-145.50;100.00
50226;BME280;36113;50.742;6.432;2023-05-11T07:44:37;112741.81;;;-145.50;100.00
50226;BME280;36113;50.742;6.432;2023-05-11T07:47:02;112741.81;;;-145.50;100.00
50226;BME280;36113;50.742;6.432;2023-05-11T07:49:27;112741.81;;;-145.50;100.00
50226;BME280;36113;50.742;6.432;2023-05-11T07:51:53;112741.81;;;-145.50;100.00
50226;BME280;36113;50.742;6.432;2023-05-11T07:54:18;112741.81;;;-145.50;100.00
50226;BME280;36113;50.742;6.432;2023-05-11T07:56:43;112741.81;;;-145.50;100.00
50226;BME280;36113;50.742;6.432;2023-05-11T07:59:09;112741.81;;;-145.50;100.00
50226;BME280;36113;50.742;6.432;2023-05-11T08:01:34;112741.81;;;-145.50;100.00
50226;BME280;36113;50.742;6.432;2023-05-11T08:04:00;112741.81;;;-145.50;100.00
50226;BME280;36113;50.742;6.432;2023-05-11T08:06:25;112741.81;;;-145.50;100.00
50226;BME280;36113;50.742;6.432;2023-05-11T08:08:50;112741.81;;;-145.50;100.00
50226;BME280;36113;50.742;6.432;2023-05-11T08:11:16;112741.81;;;-145.50;100.00
50226;BME280;36113;50.742;6.432;2023-05-11T08:13:41;112741.81;;;-145.50;100.00
50226;BME280;36113;50.742;6.432;2023-05-11T08:16:06;112741.81;;;-145.50;100.00
50226;BME280;36113;50.742;6.432;2023-05-11T08:18:32;112741.81;;;-145.50;100.00
50226;BME280;36113;50.742;6.432;2023-05-11T08:20:57;112741.81;;;-145.50;100.00
50226;BME280;36113;50.742;6.432;2023-05-11T08:23:23;112741.81;;;-145.50;100.00
50226;BME280;36113;50.742;6.432;2023-05-11T08:25:53;112741.81;;;-145.50;100.00
50226;BME280;36113;50.742;6.432;2023-05-11T08:28:19;112741.81;;;-145.50;100.00
50226;BME280;36113;50.742;6.432;2023-05-11T08:30:44;112741.81;;;-145.50;100.00
50226;BME280;36113;50.742;6.432;2023-05-11T08:33:10;112741.81;;;-145.50;100.00
50226;BME280;36113;50.742;6.432;2023-05-11T08:35:37;112741.81;;;-145.50;99.68
50226;BME280;36113;50.742;6.432;2023-05-11T08:38:03;112741.81;;;-145.50;99.39
50226;BME280;36113;50.742;6.432;2023-05-11T08:40:28;112741.81;;;-145.50;99.11
50226;BME280;36113;50.742;6.432;2023-05-11T08:42:55;112741.81;;;-145.50;99.42
50226;BME280;36113;50.742;6.432;2023-05-11T08:45:21;112741.81;;;-145.50;99.58
50226;BME280;36113;50.742;6.432;2023-05-11T08:47:47;112741.81;;;-145.50;98.93
50226;BME280;36113;50.742;6.432;2023-05-11T08:50:14;112741.81;;;-145.50;98.89
50226;BME280;36113;50.742;6.432;2023-05-11T08:52:39;112741.81;;;-145.50;98.61
50226;BME280;36113;50.742;6.432;2023-05-11T08:55:06;112741.81;;;-145.50;97.89
50226;BME280;36113;50.742;6.432;2023-05-11T08:57:33;112741.81;;;-145.50;97.52
50226;BME280;36113;50.742;6.432;2023-05-11T09:00:00;112741.81;;;-145.50;97.52
50226;BME280;36113;50.742;6.432;2023-05-11T09:02:27;112741.81;;;-145.50;97.45
50226;BME280;36113;50.742;6.432;2023-05-11T09:04:53;112741.81;;;-145.50;96.58
50226;BME280;36113;50.742;6.432;2023-05-11T09:07:19;112741.81;;;-145.50;96.19
50226;BME280;36113;50.742;6.432;2023-05-11T09:09:46;112741.81;;;-145.50;94.68
50226;BME280;36113;50.742;6.432;2023-05-11T09:12:12;112741.81;;;-145.50;93.78
50226;BME280;36113;50.742;6.432;2023-05-11T09:14:37;112741.81;;;-145.50;93.89
50226;BME280;36113;50.742;6.432;2023-05-11T09:17:02;112741.81;;;-145.50;93.97
50226;BME280;36113;50.742;6.432;2023-05-11T09:19:28;112741.81;;;-145.50;92.78
50226;BME280;36113;50.742;6.432;2023-05-11T09:21:54;112741.81;;;-145.50;93.73
50226;BME280;36113;50.742;6.432;2023-05-11T09:24:20;112741.81;;;-145.50;93.55
50226;BME280;36113;50.742;6.432;2023-05-11T09:26:46;112741.81;;;-145.50;92.31
50226;BME280;36113;50.742;6.432;2023-05-11T09:29:11;112741.81;;;-145.50;91.82
50226;BME280;36113;50.742;6.432;2023-05-11T09:31:39;112741.81;;;-145.50;91.73
50226;BME280;36113;50.742;6.432;2023-05-11T09:34:21;112741.81;;;-145.50;91.46
50226;BME280;36113;50.742;6.432;2023-05-11T09:36:49;112741.81;;;-145.50;92.12
50226;BME280;36113;50.742;6.432;2023-05-11T09:39:15;112741.81;;;-145.50;90.86
50226;BME280;36113;50.742;6.432;2023-05-11T09:41:43;112741.81;;;-145.50;90.54
50226;BME280;36113;50.742;6.432;2023-05-11T09:44:14;112741.81;;;-145.50;90.12
50226;BME280;36113;50.742;6.432;2023-05-11T09:46:42;112741.81;;;-145.50;90.85
50226;BME280;36113;50.742;6.432;2023-05-11T09:49:07;112741.81;;;-145.50;87.82
50226;BME280;36113;50.742;6.432;2023-05-11T09:51:35;112741.81;;;-145.50;87.43
50226;BME280;36113;50.742;6.432;2023-05-11T09:54:20;112741.81;;;-145.50;88.32
50226;BME280;36113;50.742;6.432;2023-05-11T09:56:48;112741.81;;;-145.50;87.17
50226;BME280;36113;50.742;6.432;2023-05-11T09:59:15;112741.81;;;-145.50;87.17
50226;BME280;36113;50.742;6.432;2023-05-11T10:01:41;112741.81;;;-145.50;86.25
50226;BME280;36113;50.742;6.432;2023-05-11T10:04:07;112741.81;;;-145.50;85.35
50226;BME280;36113;50.742;6.432;2023-05-11T10:06:50;112741.81;;;-145.50;86.36
50226;BME280;36113;50.742;6.432;2023-05-11T10:09:18;112741.81;;;-145.50;84.51
50226;BME280;36113;50.742;6.432;2023-05-11T10:11:44;112741.81;;;-145.50;84.00
50226;BME280;36113;50.742;6.432;2023-05-11T10:14:12;112741.81;;;-145.50;84.60
50226;BME280;36113;50.742;6.432;2023-05-11T10:16:40;112741.81;;;-145.50;84.62
50226;BME280;36113;50.742;6.432;2023-05-11T10:19:06;112741.81;;;-145.50;83.70
50226;BME280;36113;50.742;6.432;2023-05-11T10:21:32;112741.81;;;-145.50;84.61
50226;BME280;36113;50.742;6.432;2023-05-11T10:23:59;112741.81;;;-145.50;85.00
50226;BME280;36113;50.742;6.432;2023-05-11T10:26:25;112741.81;;;-145.50;86.09
50226;BME280;36113;50.742;6.432;2023-05-11T10:28:51;112741.81;;;-145.50;85.15
50226;BME280;36113;50.742;6.432;2023-05-11T10:31:17;112741.81;;;-145.50;85.53
50226;BME280;36113;50.742;6.432;2023-05-11T10:33:52;112741.81;;;-145.50;85.36
50226;BME280;36113;50.742;6.432;2023-05-11T10:36:18;112741.81;;;-145.50;85.18
50226;BME280;36113;50.742;6.432;2023-05-11T10:38:43;112741.81;;;-145.50;84.32
50226;BME280;36113;50.742;6.432;2023-05-11T10:41:43;112741.81;;;-145.50;83.82
50226;BME280;36113;50.742;6.432;2023-05-11T10:44:51;112741.81;;;-145.50;83.89
50226;BME280;36113;50.742;6.432;2023-05-11T10:58:58;112741.81;;;-145.50;83.18
50226;BME280;36113;50.742;6.432;2023-05-11T11:01:41;112741.81;;;-145.50;83.35
50226;BME280;36113;50.742;6.432;2023-05-11T11:04:08;112741.81;;;-145.50;82.96
50226;BME280;36113;50.742;6.432;2023-05-11T11:06:38;112741.81;;;-145.50;83.58
50226;BME280;36113;50.742;6.432;2023-05-11T11:11:34;112741.81;;;-145.50;82.13
50226;BME280;36113;50.742;6.432;2023-05-11T11:14:01;112741.81;;;-145.50;80.69
50226;BME280;36113;50.742;6.432;2023-05-11T11:16:30;112741.81;;;-145.50;80.26
50226;BME280;36113;50.742;6.432;2023-05-11T11:19:48;112741.81;;;-145.50;81.29
50226;BME280;36113;50.742;6.432;2023-05-11T11:25:04;112741.81;;;-145.50;82.69
50226;BME280;36113;50.742;6.432;2023-05-11T11:30:23;112741.81;;;-145.50;82.00
50226;BME280;36113;50.742;6.432;2023-05-11T11:32:51;112741.81;;;-145.50;81.21
50226;BME280;36113;50.742;6.432;2023-05-11T11:35:55;112741.81;;;-145.50;80.50
50226;BME280;36113;50.742;6.432;2023-05-11T11:38:21;112741.81;;;-145.50;80.30
50226;BME280;36113;50.742;6.432;2023-05-11T11:40:48;112741.81;;;-145.50;79.43
50226;BME280;36113;50.742;6.432;2023-05-11T11:43:22;112741.81;;;-145.50;77.60
50226;BME280;36113;50.742;6.432;2023-05-11T11:51:09;112741.81;;;-145.50;76.82
50226;BME280;36113;50.742;6.432;2023-05-11T11:56:00;112741.81;;;-145.50;77.56
50226;BME280;36113;50.742;6.432;2023-05-11T12:01:08;112741.81;;;-145.50;77.55
50226;BME280;36113;50.742;6.432;2023-05-11T12:03:34;112741.81;;;-145.50;78.24
50226;BME280;36113;50.742;6.432;2023-05-11T12:06:01;112741.81;;;-145.50;77.60
50226;BME280;36113;50.742;6.432;2023-05-11T12:08:29;112741.81;;;-145.50;78.08
50226;BME280;36113;50.742;6.432;2023-05-11T12:10:58;112741.81;;;-145.50;76.72
50226;BME280;36113;50.742;6.432;2023-05-11T12:13:24;112741.81;;;-145.50;76.24
50226;BME280;36113;50.742;6.432;2023-05-11T12:16:06;112741.81;;;-145.50;76.62
50226;BME280;36113;50.742;6.432;2023-05-11T12:18:31;112741.81;;;-145.50;76.70
50226;BME280;36113;50.742;6.432;2023-05-11T12:20:57;112741.81;;;-145.50;77.71
50226;BME280;36113;50.742;6.432;2023-05-11T12:23:22;112741.81;;;-145.50;77.61
50226;BME280;36113;50.742;6.432;2023-05-11T12:26:05;112741.81;;;-145.50;76.41
50226;BME280;36113;50.742;6.432;2023-05-11T12:28:33;112741.81;;;-145.50;75.71
50226;BME280;36113;50.742;6.432;2023-05-11T12:30:58;112741.81;;;-145.50;75.46
50226;BME280;36113;50.742;6.432;2023-05-11T12:33:24;112741.81;;;-145.50;77.40
50226;BME280;36113;50.742;6.432;2023-05-11T12:35:53;112741.81;;;-145.50;78.21
50226;BME280;36113;50.742;6.432;2023-05-11T12:38:18;112741.81;;;-145.50;78.52
50226;BME280;36113;50.742;6.432;2023-05-11T12:40:47;112741.81;;;-145.50;79.33
50226;BME280;36113;50.742;6.432;2023-05-11T12:43:18;112741.81;;;-145.50;80.58
50226;BME280;36113;50.742;6.432;2023-05-11T12:45:44;112741.81;;;-145.50;79.78
50226;BME280;36113;50.742;6.432;2023-05-11T12:48:11;112741.81;;;-145.50;80.87
50226;BME280;36113;50.742;6.432;2023-05-11T12:50:40;112741.81;;;-145.50;78.85
50226;BME280;36113;50.742;6.432;2023-05-11T12:53:13;112741.81;;;-145.50;80.99
50226;BME280;36113;50.742;6.432;2023-05-11T12:55:41;112741.81;;;-145.50;81.42
50226;BME280;36113;50.742;6.432;2023-05-11T12:58:14;112741.81;;;-145.50;80.17
50226;BME280;36113;50.742;6.432;2023-05-11T13:00:56;112741.81;;;-145.50;78.74